Time;durP1;ratioP1;P1;durP2;ratioP2;P2;SDS_P1;SDS_P2;PMS_P1;PMS_P2;Temp;Humidity;BMP_temperature;BMP_pressure;BME280_temperature;BME280_humidity;BME280_pressure;Samples;Min_cycle;Max_cycle;Signal;HPM_P1;HPM_P2
2022/03/04 00:01:58;;;;;;;19.10;17.90;;;;;;;-141.02;100.00;55844.97;5136327;27;20192;-71
2022/03/04 00:04:26;;;;;;;18.93;17.67;;;;;;;-141.02;100.00;55844.97;5136650;27;20641;-71
2022/03/04 00:06:55;;;;;;;18.57;17.67;;;;;;;-141.02;100.00;55844.97;5136515;27;20556;-71
2022/03/04 00:09:22;;;;;;;19.00;18.00;;;;;;;-141.02;100.00;55844.97;5136538;27;20200;-71
2022/03/04 00:11:49;;;;;;;18.60;17.60;;;;;;;-141.02;100.00;55844.97;5136128;27;20279;-71
2022/03/04 00:14:17;;;;;;;19.27;18.17;;;;;;;-141.02;100.00;55844.97;5136151;27;20729;-71
2022/03/04 00:16:45;;;;;;;18.40;17.50;;;;;;;-141.02;100.00;55844.97;5135961;27;20224;-71
2022/03/04 00:19:12;;;;;;;17.80;17.00;;;;;;;-141.02;100.00;55844.97;5136301;27;20296;-71
2022/03/04 00:21:42;;;;;;;18.37;17.40;;;;;;;-141.02;100.00;55844.97;5135951;27;20675;-71
2022/03/04 00:24:10;;;;;;;18.80;17.70;;;;;;;-141.02;100.00;55844.97;5136131;27;20222;-71
2022/03/04 00:26:38;;;;;;;17.67;16.87;;;;;;;-141.02;100.00;55844.97;5136137;27;20188;-71
2022/03/04 00:29:06;;;;;;;18.30;17.30;;;;;;;-141.02;100.00;55844.97;5136065;27;20708;-71
2022/03/04 00:31:33;;;;;;;18.47;17.53;;;;;;;-141.02;100.00;55844.97;5135741;27;20199;-71
2022/03/04 00:34:06;;;;;;;17.97;17.03;;;;;;;-141.02;100.00;55844.97;5135676;27;20654;-71
2022/03/04 00:36:34;;;;;;;20.33;19.03;;;;;;;-141.02;100.00;55844.97;5135624;27;20209;-71
2022/03/04 00:39:01;;;;;;;17.90;17.10;;;;;;;-141.02;100.00;55844.97;5135410;27;20196;-71
2022/03/04 00:41:28;;;;;;;18.40;17.47;;;;;;;-141.02;100.00;55844.97;5135598;27;20185;-71
2022/03/04 00:43:55;;;;;;;19.17;18.00;;;;;;;-141.02;100.00;55844.97;5135874;27;20547;-71
2022/03/04 00:46:22;;;;;;;19.00;18.00;;;;;;;-141.02;100.00;55844.97;5135752;27;20219;-71
2022/03/04 00:48:49;;;;;;;18.13;17.30;;;;;;;-141.02;100.00;55844.97;5135371;27;20238;-72
2022/03/04 00:51:18;;;;;;;18.30;17.30;;;;;;;-141.02;100.00;55844.97;5135353;27;20221;-71
2022/03/04 00:53:45;;;;;;;17.87;17.00;;;;;;;-141.02;100.00;55844.97;5136185;27;20671;-71
2022/03/04 00:56:13;;;;;;;18.20;17.30;;;;;;;-141.02;100.00;55844.97;5135549;27;20311;-71
2022/03/04 00:58:41;;;;;;;18.67;17.67;;;;;;;-141.02;100.00;55844.97;5135265;27;20726;-72
2022/03/04 01:01:09;;;;;;;17.77;16.97;;;;;;;-141.02;100.00;55844.97;5135556;27;20249;-71
2022/03/04 01:03:37;;;;;;;17.27;16.47;;;;;;;-141.02;100.00;55844.97;5135399;27;20196;-72
2022/03/04 01:06:05;;;;;;;18.73;17.83;;;;;;;-141.02;100.00;55844.97;5135470;27;20295;-71
2022/03/04 01:08:34;;;;;;;18.40;17.50;;;;;;;-141.02;100.00;55844.97;5135021;27;20202;-71
2022/03/04 01:11:02;;;;;;;18.00;17.20;;;;;;;-141.02;100.00;55844.97;5135277;27;20228;-71
2022/03/04 01:13:29;;;;;;;19.60;18.60;;;;;;;-141.02;100.00;55844.97;5135191;27;20193;-71
2022/03/04 01:15:56;;;;;;;18.73;17.83;;;;;;;-141.02;100.00;55844.97;5135087;27;20341;-71
2022/03/04 01:18:23;;;;;;;19.47;18.47;;;;;;;-141.02;100.00;55844.97;5135217;27;20196;-71
2022/03/04 01:20:50;;;;;;;19.20;18.20;;;;;;;-141.02;100.00;55844.97;5135066;27;20228;-71
2022/03/04 01:23:17;;;;;;;18.27;17.37;;;;;;;-141.02;100.00;55844.97;5134748;27;20188;-71
2022/03/04 01:25:46;;;;;;;18.00;17.20;;;;;;;-141.02;100.00;55844.97;5134977;27;20295;-71
2022/03/04 01:28:13;;;;;;;17.90;17.10;;;;;;;-141.02;100.00;55844.97;5134899;27;20196;-71
2022/03/04 01:30:40;;;;;;;17.70;16.87;;;;;;;-141.02;100.00;55844.97;5134586;27;20232;-71
2022/03/04 01:33:08;;;;;;;17.57;16.40;;;;;;;-141.02;100.00;55844.97;5134499;27;20288;-71
2022/03/04 01:35:36;;;;;;;19.17;17.90;;;;;;;-141.02;100.00;55844.97;5134195;27;20196;-71
2022/03/04 01:38:03;;;;;;;20.07;18.97;;;;;;;-141.02;100.00;55844.97;5134746;27;20606;-71
2022/03/04 01:40:30;;;;;;;17.10;16.40;;;;;;;-141.02;100.00;55844.97;5134157;27;20319;-71
2022/03/04 01:42:59;;;;;;;18.37;17.37;;;;;;;-141.02;100.00;55844.97;5134335;27;20235;-72
2022/03/04 01:45:26;;;;;;;19.93;18.47;;;;;;;-141.02;100.00;55844.97;5134252;27;20234;-72
2022/03/04 01:47:53;;;;;;;18.90;18.00;;;;;;;-141.02;100.00;55844.97;5134257;27;20196;-71
2022/03/04 01:50:21;;;;;;;19.93;18.83;;;;;;;-141.02;100.00;55844.97;5134190;27;20224;-72
2022/03/04 01:52:48;;;;;;;19.00;17.97;;;;;;;-141.02;100.00;55844.97;5134180;27;20666;-72
2022/03/04 01:55:15;;;;;;;20.47;19.23;;;;;;;-141.02;100.00;55844.97;5134488;27;20193;-71
2022/03/04 01:57:42;;;;;;;18.30;17.50;;;;;;;-141.02;100.00;55844.97;5133930;27;20224;-71
2022/03/04 02:00:14;;;;;;;21.47;19.67;;;;;;;-141.02;100.00;55844.97;5134364;27;20189;-71
2022/03/04 02:02:41;;;;;;;17.60;16.73;;;;;;;-141.02;100.00;55844.97;5134238;27;20241;-71
2022/03/04 02:05:13;;;;;;;17.93;17.03;;;;;;;-141.02;100.00;55844.97;5134217;27;20603;-71
2022/03/04 02:07:40;;;;;;;17.87;17.07;;;;;;;-141.02;100.00;55844.97;5133902;27;20678;-72
2022/03/04 02:10:08;;;;;;;17.93;16.93;;;;;;;-141.02;100.00;55844.97;5133767;27;20687;-71
2022/03/04 02:12:35;;;;;;;18.30;17.30;;;;;;;-141.02;100.00;55844.97;5133750;27;20204;-72
2022/03/04 02:15:03;;;;;;;18.90;17.70;;;;;;;-141.02;100.00;55844.97;5134056;27;20245;-71
2022/03/04 02:17:32;;;;;;;23.70;22.03;;;;;;;-141.02;100.00;55844.97;5133613;27;20721;-72
2022/03/04 02:19:59;;;;;;;19.97;18.40;;;;;;;-141.02;100.00;55844.97;5133886;27;20218;-72
2022/03/04 02:22:27;;;;;;;18.40;17.30;;;;;;;-141.02;100.00;55844.97;5133877;27;20200;-72
2022/03/04 02:24:55;;;;;;;17.97;17.17;;;;;;;-141.02;100.00;55844.97;5133799;27;20269;-72
2022/03/04 02:27:22;;;;;;;16.77;15.97;;;;;;;-141.02;100.00;55844.97;5133865;27;20252;-72
2022/03/04 02:29:49;;;;;;;18.47;17.20;;;;;;;-141.02;100.00;55844.97;5133441;27;20197;-72
2022/03/04 02:32:16;;;;;;;17.80;16.90;;;;;;;-141.02;100.00;55844.97;5133362;27;20224;-72
2022/03/04 02:34:43;;;;;;;20.37;19.37;;;;;;;-141.02;100.00;55844.97;5133442;27;20196;-72
2022/03/04 02:37:10;;;;;;;21.73;20.43;;;;;;;-141.02;100.00;55844.97;5133525;27;20224;-72
2022/03/04 02:39:38;;;;;;;21.10;20.00;;;;;;;-141.02;100.00;55844.97;5133128;27;20652;-72
2022/03/04 02:42:06;;;;;;;19.20;18.30;;;;;;;-141.02;100.00;55844.97;5133249;27;20234;-71
2022/03/04 02:44:33;;;;;;;20.27;19.13;;;;;;;-141.02;100.00;55844.97;5133579;27;20196;-72
2022/03/04 02:47:00;;;;;;;19.93;18.87;;;;;;;-141.02;100.00;55844.97;5132372;27;20232;-71
2022/03/04 02:49:26;;;;;;;17.90;17.00;;;;;;;-141.02;100.00;55844.97;5133166;27;20197;-71
2022/03/04 02:51:54;;;;;;;19.30;18.50;;;;;;;-141.02;100.00;55844.97;5133507;27;20612;-72
2022/03/04 02:54:21;;;;;;;18.87;17.87;;;;;;;-141.02;100.00;55844.97;5133400;27;20192;-71
2022/03/04 02:56:50;;;;;;;20.13;19.30;;;;;;;-141.02;100.00;55844.97;5133307;27;20335;-72
2022/03/04 02:59:17;;;;;;;18.37;17.37;;;;;;;-141.02;100.00;55844.97;5133090;27;20669;-71
2022/03/04 03:01:44;;;;;;;20.70;19.60;;;;;;;-141.02;100.00;55844.97;5133213;27;20202;-72
2022/03/04 03:04:11;;;;;;;19.37;18.37;;;;;;;-141.02;100.00;55844.97;5133010;27;20658;-72
2022/03/04 03:06:37;;;;;;;20.43;19.03;;;;;;;-141.02;100.00;55844.97;5133282;27;20238;-72
2022/03/04 03:09:04;;;;;;;19.47;18.33;;;;;;;-141.02;100.00;55844.97;5133275;28;20200;-71
2022/03/04 03:11:31;;;;;;;17.47;16.67;;;;;;;-141.02;100.00;55844.97;5132888;28;20197;-71
2022/03/04 03:14:00;;;;;;;17.70;16.77;;;;;;;-141.02;100.00;55844.97;5132863;28;20274;-71
2022/03/04 03:16:27;;;;;;;16.67;15.77;;;;;;;-141.02;100.00;55844.97;5133123;28;20305;-72
2022/03/04 03:18:54;;;;;;;18.60;17.63;;;;;;;-141.02;100.00;55844.97;5133108;27;20188;-72
2022/03/04 03:21:21;;;;;;;18.47;17.20;;;;;;;-141.02;100.00;55844.97;5133665;28;20192;-72
2022/03/04 03:23:48;;;;;;;17.67;16.67;;;;;;;-141.02;100.00;55844.97;5132744;28;20666;-71
2022/03/04 03:26:15;;;;;;;18.80;17.80;;;;;;;-141.02;100.00;55844.97;5133072;28;20231;-71
2022/03/04 03:28:42;;;;;;;17.40;16.50;;;;;;;-141.02;100.00;55844.97;5132752;28;20249;-71
2022/03/04 03:31:11;;;;;;;18.60;17.70;;;;;;;-141.02;100.00;55844.97;5132674;28;20236;-72
2022/03/04 03:33:38;;;;;;;17.30;16.40;;;;;;;-141.02;100.00;55844.97;5133831;27;20233;-72
2022/03/04 03:36:05;;;;;;;18.97;17.77;;;;;;;-141.02;100.00;55844.97;5132561;28;20197;-72
2022/03/04 03:38:32;;;;;;;18.93;18.03;;;;;;;-141.02;100.00;55844.97;5133026;27;20200;-72
2022/03/04 03:40:59;;;;;;;19.27;18.17;;;;;;;-141.02;100.00;55844.97;5132498;28;20232;-72
2022/03/04 03:43:26;;;;;;;21.53;19.60;;;;;;;-141.02;100.00;55844.97;5132942;27;20192;-71
2022/03/04 03:45:53;;;;;;;18.10;17.07;;;;;;;-141.02;100.00;55844.97;5132580;28;20253;-71
2022/03/04 03:48:22;;;;;;;17.40;16.50;;;;;;;-141.02;100.00;55844.97;5132520;28;20551;-72
2022/03/04 03:50:48;;;;;;;19.03;17.53;;;;;;;-141.02;100.00;55844.97;5132891;28;20193;-72
2022/03/04 03:53:15;;;;;;;17.27;16.47;;;;;;;-141.02;100.00;55844.97;5132779;28;20228;-72
2022/03/04 03:55:43;;;;;;;16.77;15.87;;;;;;;-141.02;100.00;55844.97;5132869;28;20272;-72
2022/03/04 03:58:10;;;;;;;16.23;15.40;;;;;;;-141.02;100.00;55844.97;5134167;27;20224;-72
2022/03/04 04:00:37;;;;;;;16.63;15.83;;;;;;;-141.02;100.00;55844.97;5136377;27;20279;-72
2022/03/04 04:03:04;;;;;;;16.03;15.23;;;;;;;-141.02;100.00;55844.97;5136659;27;20570;-71
2022/03/04 04:05:32;;;;;;;15.50;14.80;;;;;;;-141.02;100.00;55844.97;5136271;27;20189;-72
2022/03/04 04:07:59;;;;;;;15.43;14.73;;;;;;;-141.02;100.00;55844.97;5136503;27;20201;-72
2022/03/04 04:10:26;;;;;;;16.00;15.20;;;;;;;-141.02;100.00;55844.97;5136217;27;20249;-72
2022/03/04 04:12:53;;;;;;;15.73;15.03;;;;;;;-141.02;100.00;55844.97;5136044;27;20228;-72
2022/03/04 04:15:20;;;;;;;16.13;15.23;;;;;;;-141.02;100.00;55844.97;5136088;27;20726;-72
2022/03/04 04:17:47;;;;;;;35.77;17.33;;;;;;;-141.02;100.00;55844.97;5136222;27;20228;-71
2022/03/04 04:20:14;;;;;;;16.20;15.50;;;;;;;-141.02;100.00;55844.97;5135970;27;20192;-72
2022/03/04 04:22:43;;;;;;;15.60;14.90;;;;;;;-141.02;100.00;55844.97;5135881;27;20621;-72
2022/03/04 04:25:10;;;;;;;15.77;15.07;;;;;;;-141.02;100.00;55844.97;5136131;27;20224;-72
2022/03/04 04:27:37;;;;;;;15.40;14.70;;;;;;;-141.02;100.00;55844.97;5136125;27;20253;-71
2022/03/04 04:30:05;;;;;;;17.37;16.57;;;;;;;-141.02;100.00;55844.97;5136056;27;20224;-71
2022/03/04 04:32:32;;;;;;;16.30;15.40;;;;;;;-141.02;100.00;55844.97;5136074;27;20224;-71
2022/03/04 04:34:59;;;;;;;15.53;14.83;;;;;;;-141.02;100.00;55844.97;5135978;27;20283;-71
2022/03/04 04:37:26;;;;;;;14.33;13.70;;;;;;;-141.02;100.00;55844.97;5135883;27;20651;-71
2022/03/04 04:39:55;;;;;;;14.60;13.90;;;;;;;-141.02;100.00;55844.97;5135567;27;20229;-71
2022/03/04 04:42:22;;;;;;;15.77;15.07;;;;;;;-141.02;100.00;55844.97;5135846;27;20247;-72
2022/03/04 04:44:49;;;;;;;16.73;15.93;;;;;;;-141.02;100.00;55844.97;5135859;27;20283;-72
2022/03/04 04:47:16;;;;;;;14.60;14.00;;;;;;;-141.02;100.00;55844.97;5135480;27;20249;-72
2022/03/04 04:49:43;;;;;;;15.50;14.90;;;;;;;-141.02;100.00;55844.97;5135446;27;20758;-72
2022/03/04 04:52:10;;;;;;;15.13;14.53;;;;;;;-141.02;100.00;55844.97;5135395;27;20232;-72
2022/03/04 04:54:37;;;;;;;14.40;13.80;;;;;;;-141.02;100.00;55844.97;5135663;27;20544;-72
2022/03/04 04:57:06;;;;;;;14.53;13.93;;;;;;;-141.02;100.00;55844.97;5135558;27;20256;-72
2022/03/04 04:59:33;;;;;;;14.37;13.77;;;;;;;-141.02;100.00;55844.97;5135585;27;20220;-72
2022/03/04 05:02:00;;;;;;;14.63;14.03;;;;;;;-141.02;100.00;55844.97;5135559;27;20269;-72
2022/03/04 05:04:28;;;;;;;15.53;14.80;;;;;;;-141.02;100.00;55844.97;5135135;27;20689;-72
2022/03/04 05:06:55;;;;;;;15.90;15.20;;;;;;;-141.02;100.00;55844.97;5135398;27;20230;-72
2022/03/04 05:09:22;;;;;;;15.63;14.83;;;;;;;-141.02;100.00;55844.97;5134115;27;20204;-71
2022/03/04 05:11:49;;;;;;;15.17;14.43;;;;;;;-141.02;100.00;55844.97;5135288;27;20192;-72
2022/03/04 05:14:17;;;;;;;14.63;13.93;;;;;;;-141.02;100.00;55844.97;5134921;27;20205;-71
2022/03/04 05:16:44;;;;;;;15.23;14.33;;;;;;;-141.02;100.00;55844.97;5134782;27;20628;-72
2022/03/04 05:19:11;;;;;;;15.00;14.40;;;;;;;-141.02;100.00;55844.97;5134908;27;20196;-71
2022/03/04 05:21:38;;;;;;;14.77;14.27;;;;;;;-141.02;100.00;55844.97;5135113;27;20196;-72
2022/03/04 05:24:07;;;;;;;14.43;13.77;;;;;;;-141.02;100.00;55844.97;5135053;27;20234;-72
2022/03/04 05:26:36;;;;;;;15.87;15.00;;;;;;;-141.02;100.00;55844.97;5135029;27;20203;-72
2022/03/04 05:29:05;;;;;;;15.30;14.70;;;;;;;-141.02;100.00;55844.97;5134599;27;20283;-72
2022/03/04 05:31:34;;;;;;;14.60;14.00;;;;;;;-141.02;100.00;55844.97;5134631;27;20249;-72
2022/03/04 05:34:01;;;;;;;14.20;13.70;;;;;;;-141.02;100.00;55844.97;5134781;27;20224;-72
2022/03/04 05:36:28;;;;;;;17.30;16.50;;;;;;;-141.02;100.00;55844.97;5135299;27;20254;-72
2022/03/04 05:38:56;;;;;;;17.23;16.43;;;;;;;-141.02;100.00;55844.97;5134460;27;20259;-72
2022/03/04 05:41:23;;;;;;;15.27;14.67;;;;;;;-141.02;100.00;55844.97;5134632;27;20268;-72
2022/03/04 05:43:50;;;;;;;15.53;14.83;;;;;;;-141.02;100.00;55844.97;5134684;27;20257;-72
2022/03/04 05:46:18;;;;;;;16.07;15.10;;;;;;;-141.02;100.00;55844.97;5134301;27;20231;-72
2022/03/04 05:48:47;;;;;;;16.50;15.80;;;;;;;-141.02;100.00;55844.97;5134252;27;20678;-72
2022/03/04 05:51:14;;;;;;;16.17;15.47;;;;;;;-141.02;100.00;55844.97;5134271;27;20238;-72
2022/03/04 05:53:41;;;;;;;15.50;14.80;;;;;;;-141.02;100.00;55844.97;5135592;27;20200;-72
2022/03/04 05:56:09;;;;;;;15.77;15.07;;;;;;;-141.02;100.00;55844.97;5134448;27;20189;-72
2022/03/04 05:58:37;;;;;;;15.83;15.13;;;;;;;-141.02;100.00;55844.97;5134308;27;20256;-72
2022/03/04 06:01:06;;;;;;;16.13;15.43;;;;;;;-141.02;100.00;55844.97;5134304;27;20279;-72
2022/03/04 06:03:33;;;;;;;17.07;16.27;;;;;;;-141.02;100.00;55844.97;5133935;27;20257;-72
2022/03/04 06:06:02;;;;;;;20.47;18.53;;;;;;;-141.02;100.00;55844.97;5133891;27;20655;-72
2022/03/04 06:08:29;;;;;;;17.37;16.47;;;;;;;-141.02;100.00;55844.97;5133849;27;20201;-72
2022/03/04 06:10:56;;;;;;;17.83;16.93;;;;;;;-141.02;100.00;55844.97;5133861;27;20192;-72
2022/03/04 06:13:24;;;;;;;22.60;21.30;;;;;;;-141.02;100.00;55844.97;5133832;27;20281;-72
2022/03/04 06:15:51;;;;;;;22.40;21.20;;;;;;;-141.02;100.00;55844.97;5133709;27;20725;-72
2022/03/04 06:18:18;;;;;;;20.17;19.17;;;;;;;-141.02;100.00;55844.97;5133647;27;20219;-72
2022/03/04 06:20:45;;;;;;;19.77;18.87;;;;;;;-141.02;100.00;55844.97;5133765;27;20720;-72
2022/03/04 06:23:14;;;;;;;19.10;18.20;;;;;;;-141.02;100.00;55844.97;5133606;27;20192;-72
2022/03/04 06:25:41;;;;;;;21.10;19.97;;;;;;;-141.02;100.00;55844.97;5133549;27;20188;-72
2022/03/04 06:28:08;;;;;;;18.27;17.47;;;;;;;-141.02;100.00;55844.97;5133726;27;20628;-72
2022/03/04 06:30:37;;;;;;;20.13;19.23;;;;;;;-141.02;100.00;55844.97;5133693;27;20579;-73
2022/03/04 06:35:50;;;;;;;19.90;19.00;;;;;;;-141.02;100.00;55844.97;5133813;27;20191;-72
2022/03/04 06:38:18;;;;;;;18.90;18.10;;;;;;;-141.02;100.00;55844.97;5133596;27;20228;-73
2022/03/04 06:40:46;;;;;;;20.03;19.03;;;;;;;-141.02;100.00;55844.97;5133420;27;20228;-72
2022/03/04 06:43:14;;;;;;;19.73;18.73;;;;;;;-141.02;100.00;55844.97;5133499;27;20192;-72
2022/03/04 06:45:42;;;;;;;21.33;20.07;;;;;;;-141.02;100.00;55844.97;5133259;27;20200;-73
2022/03/04 06:48:09;;;;;;;19.93;18.73;;;;;;;-141.02;100.00;55844.97;5133180;27;20193;-73
2022/03/04 06:50:36;;;;;;;21.30;19.80;;;;;;;-141.02;100.00;55844.97;5133509;27;20220;-72
2022/03/04 06:53:04;;;;;;;22.27;20.27;;;;;;;-141.02;100.00;55844.97;5133211;27;20693;-72
2022/03/04 06:55:33;;;;;;;18.23;17.33;;;;;;;-141.02;100.00;55844.97;5133315;27;20192;-73
2022/03/04 06:58:00;;;;;;;20.27;19.23;;;;;;;-141.02;100.00;55844.97;5133084;27;20770;-73
2022/03/04 07:00:27;;;;;;;19.30;18.40;;;;;;;-141.02;100.00;55844.97;5133361;27;20196;-72
2022/03/04 07:02:55;;;;;;;23.00;21.70;;;;;;;-141.02;100.00;55844.97;5133310;27;20245;-72
2022/03/04 07:05:23;;;;;;;20.13;19.13;;;;;;;-141.02;100.00;55844.97;5133383;27;20196;-72
2022/03/04 07:07:50;;;;;;;17.60;16.80;;;;;;;-141.02;100.00;55844.97;5132975;27;20242;-73
2022/03/04 07:10:18;;;;;;;18.50;17.60;;;;;;;-141.02;100.00;55844.97;5133213;28;20188;-73
2022/03/04 07:12:47;;;;;;;19.37;18.37;;;;;;;-141.02;100.00;55844.97;5133121;28;20570;-73
2022/03/04 07:15:15;;;;;;;17.40;16.60;;;;;;;-141.02;100.00;55844.97;5132921;27;20196;-73
2022/03/04 07:17:42;;;;;;;18.90;18.00;;;;;;;-141.02;100.00;55844.97;5132761;27;20591;-73
2022/03/04 07:20:10;;;;;;;17.30;16.50;;;;;;;-141.02;100.00;55844.97;5133198;27;20197;-73
2022/03/04 07:22:38;;;;;;;17.70;16.90;;;;;;;-141.02;100.00;55844.97;5132834;27;20241;-72
2022/03/04 07:25:06;;;;;;;17.80;17.00;;;;;;;-141.02;100.00;55844.97;5133322;28;20201;-72
2022/03/04 07:27:34;;;;;;;18.80;17.90;;;;;;;-141.02;100.00;55844.97;5133039;28;20203;-73
2022/03/04 07:30:04;;;;;;;20.40;19.23;;;;;;;-141.02;100.00;55844.97;5132706;27;20204;-73
2022/03/04 07:32:32;;;;;;;17.67;16.87;;;;;;;-141.02;100.00;55844.97;5133416;27;20288;-73
2022/03/04 07:34:59;;;;;;;19.73;18.57;;;;;;;-141.02;100.00;55844.97;5136835;27;20279;-72
2022/03/04 07:37:26;;;;;;;26.33;23.90;;;;;;;-141.02;100.00;55844.97;5136750;27;20192;-73
2022/03/04 07:39:54;;;;;;;21.40;19.87;;;;;;;-141.02;100.00;55844.97;5136603;27;20232;-72
2022/03/04 07:42:22;;;;;;;17.50;16.70;;;;;;;-141.02;100.00;55844.97;5136979;27;20283;-72
2022/03/04 07:44:50;;;;;;;17.40;16.60;;;;;;;-141.02;100.00;55844.97;5137018;27;20189;-72
2022/03/04 07:47:18;;;;;;;19.10;18.00;;;;;;;-141.02;100.00;55844.97;5136900;27;20196;-72
2022/03/04 07:49:45;;;;;;;21.30;20.20;;;;;;;-141.02;100.00;55844.97;5136614;27;20280;-72
2022/03/04 07:52:13;;;;;;;18.33;17.23;;;;;;;-141.02;100.00;55844.97;5136552;27;20203;-72
2022/03/04 07:54:40;;;;;;;18.90;18.00;;;;;;;-141.02;100.00;55844.97;5136776;27;20296;-72
2022/03/04 07:57:07;;;;;;;21.63;20.43;;;;;;;-141.02;100.00;55844.97;5136483;27;20283;-73
2022/03/04 07:59:34;;;;;;;23.67;21.80;;;;;;;-141.02;100.00;55844.97;5136619;27;20224;-72
2022/03/04 08:02:01;;;;;;;23.17;20.97;;;;;;;-141.02;100.00;55844.97;5136707;27;20257;-72
2022/03/04 08:04:30;;;;;;;18.80;17.80;;;;;;;-141.02;100.00;55844.97;5136360;27;20199;-72
2022/03/04 08:06:57;;;;;;;23.73;21.90;;;;;;;-141.02;100.00;55844.97;5136359;27;20247;-73
2022/03/04 08:09:24;;;;;;;18.80;17.50;;;;;;;-141.02;100.00;55844.97;5136285;27;20313;-72
2022/03/04 08:11:51;;;;;;;17.33;16.53;;;;;;;-141.02;100.00;55844.97;5136220;27;20196;-73
2022/03/04 08:14:18;;;;;;;18.73;17.83;;;;;;;-141.02;100.00;55844.97;5136160;27;20227;-73
2022/03/04 09:38:08;;;;;;;20.73;19.53;;;;;;;-141.02;67.87;84254.88;5151596;27;21090;-74
2022/03/04 09:40:35;;;;;;;22.30;20.90;;;;;;;-141.02;67.55;84274.31;5150952;27;20638;-74
2022/03/04 09:43:06;;;;;;;25.33;23.20;;;;;;;-141.02;65.84;84295.69;5151181;27;20246;-74
2022/03/04 09:45:33;;;;;;;24.60;22.90;;;;;;;-141.02;66.94;84270.41;5150833;27;20634;-74
2022/03/04 09:48:02;;;;;;;21.63;20.30;;;;;;;-141.02;69.14;84293.75;5151307;27;20275;-75
2022/03/04 09:50:32;;;;;;;22.30;20.97;;;;;;;-141.02;100.00;55844.97;5151110;27;20244;-74
2022/03/04 09:52:59;;;;;;;20.10;18.90;;;;;;;-141.02;100.00;55844.97;5150990;27;20192;-73
2022/03/04 09:55:28;;;;;;;24.00;22.30;;;;;;;-141.02;100.00;55844.97;5150938;27;20196;-74
2022/03/04 09:57:55;;;;;;;23.40;21.83;;;;;;;-141.02;100.00;55844.97;5150912;27;20188;-74
2022/03/04 10:00:23;;;;;;;23.43;22.03;;;;;;;-141.02;100.00;55844.97;5150855;27;20218;-74
2022/03/04 10:02:50;;;;;;;23.87;22.57;;;;;;;-141.02;100.00;55844.97;5150810;27;20295;-75
2022/03/04 10:05:17;;;;;;;23.73;22.33;;;;;;;-141.02;100.00;55844.97;5150686;27;20188;-74
2022/03/04 10:07:47;;;;;;;22.10;20.87;;;;;;;-141.02;100.00;55844.97;5150296;27;20270;-74
2022/03/04 10:10:16;;;;;;;22.17;20.97;;;;;;;-141.02;100.00;55844.97;5150683;27;20220;-74
2022/03/04 10:12:56;;;;;;;24.53;22.60;;;;;;;-141.02;100.00;55844.97;5150335;27;20235;-74
2022/03/04 10:15:25;;;;;;;24.17;22.10;;;;;;;-141.02;100.00;55844.97;5150379;27;20252;-74
2022/03/04 10:17:58;;;;;;;20.93;19.73;;;;;;;-141.02;100.00;55844.97;5150196;27;20283;-75
2022/03/04 10:20:40;;;;;;;22.83;21.33;;;;;;;-141.02;100.00;55844.97;5150265;27;20196;-74
2022/03/04 10:23:18;;;;;;;23.93;22.10;;;;;;;-141.02;100.00;55844.97;5150193;27;20192;-74
2022/03/04 10:25:48;;;;;;;21.67;20.47;;;;;;;-141.02;100.00;55844.97;5150025;27;20188;-74
2022/03/04 10:28:17;;;;;;;21.23;20.03;;;;;;;-141.02;100.00;55844.97;5150348;27;20188;-74
2022/03/04 10:30:47;;;;;;;23.70;22.10;;;;;;;-141.02;100.00;55844.97;5149942;27;20654;-74
2022/03/04 10:33:17;;;;;;;22.40;21.10;;;;;;;-141.02;100.00;55844.97;5150030;27;20214;-75
2022/03/04 10:35:45;;;;;;;22.07;20.60;;;;;;;-141.02;100.00;55844.97;5150033;27;20256;-73
2022/03/04 10:38:20;;;;;;;23.37;21.97;;;;;;;-141.02;100.00;55844.97;5141252;27;20224;-74
2022/03/04 10:40:48;;;;;;;23.67;22.17;;;;;;;-141.02;100.00;55844.97;5136348;27;20188;-74
2022/03/04 10:43:23;;;;;;;22.03;20.73;;;;;;;-141.02;100.00;55844.97;5136393;27;20192;-73
2022/03/04 10:46:01;;;;;;;22.50;21.20;;;;;;;-141.02;100.00;55844.97;5136140;27;20188;-74
2022/03/04 10:48:29;;;;;;;23.03;21.50;;;;;;;-141.02;100.00;55844.97;5136164;27;20275;-74
2022/03/04 10:50:57;;;;;;;21.07;19.87;;;;;;;-141.02;100.00;55844.97;5136077;27;20666;-75
2022/03/04 10:53:26;;;;;;;23.77;22.17;;;;;;;-141.02;100.00;55844.97;5136026;27;20192;-75
2022/03/04 10:55:55;;;;;;;24.73;22.00;;;;;;;-141.02;100.00;55844.97;5135953;27;20196;-74
2022/03/04 10:58:25;;;;;;;23.07;21.77;;;;;;;-141.02;100.00;55844.97;5135990;27;20200;-74
2022/03/04 11:00:54;;;;;;;23.97;22.47;;;;;;;-141.02;100.00;55844.97;5135948;27;20269;-74
2022/03/04 11:03:23;;;;;;;22.43;21.03;;;;;;;-141.02;100.00;55844.97;5135534;27;20197;-74
2022/03/04 11:05:52;;;;;;;22.03;20.73;;;;;;;-141.02;100.00;55844.97;5135356;27;20192;-74
2022/03/04 11:08:20;;;;;;;22.30;21.00;;;;;;;-141.02;100.00;55844.97;5136232;27;20705;-74
2022/03/04 11:10:49;;;;;;;22.63;21.33;;;;;;;-141.02;100.00;55844.97;5135656;27;20200;-73
2022/03/04 11:13:16;;;;;;;22.30;21.00;;;;;;;-141.02;100.00;55844.97;5135292;27;20292;-73
2022/03/04 11:15:46;;;;;;;24.47;22.77;;;;;;;-141.02;100.00;55844.97;5135304;27;20196;-73
2022/03/04 11:18:15;;;;;;;22.63;21.23;;;;;;;-141.02;100.00;55844.97;5135283;27;20643;-74
2022/03/04 11:20:47;;;;;;;24.10;22.57;;;;;;;-141.02;100.00;55844.97;5135252;27;20252;-74
2022/03/04 11:23:18;;;;;;;24.13;22.20;;;;;;;-141.02;100.00;55844.97;5135292;27;20638;-74
2022/03/04 11:25:52;;;;;;;22.13;20.83;;;;;;;-141.02;100.00;55844.97;5135355;27;20219;-73
2022/03/04 11:28:21;;;;;;;22.03;20.73;;;;;;;-141.02;100.00;55844.97;5135462;27;20242;-74
2022/03/04 11:30:51;;;;;;;21.73;20.43;;;;;;;-141.02;100.00;55844.97;5135318;27;20193;-74
2022/03/04 11:33:21;;;;;;;20.60;19.40;;;;;;;-141.02;100.00;55844.97;5135120;27;20675;-73
2022/03/04 11:36:05;;;;;;;22.70;21.23;;;;;;;-141.02;100.00;55844.97;5134718;27;20189;-74
2022/03/04 11:39:09;;;;;;;23.60;22.10;;;;;;;-141.02;100.00;55844.97;5134932;27;20717;-74
2022/03/04 11:42:11;;;;;;;23.17;21.73;;;;;;;-141.02;100.00;55844.97;5134875;27;20219;-74
2022/03/04 11:44:59;;;;;;;21.27;19.97;;;;;;;-141.02;100.00;55844.97;5135054;27;20215;-73
2022/03/04 11:47:30;;;;;;;21.77;20.50;;;;;;;-141.02;100.00;55844.97;5134682;27;20212;-73
2022/03/04 11:49:57;;;;;;;22.67;21.20;;;;;;;-141.02;100.00;55844.97;5133594;27;20220;-73
2022/03/04 11:52:27;;;;;;;22.30;20.90;;;;;;;-141.02;100.00;55844.97;5134872;27;20200;-73
2022/03/04 11:55:26;;;;;;;23.93;22.27;;;;;;;-141.02;100.00;55844.97;5134475;27;20235;-74
2022/03/04 11:58:01;;;;;;;22.33;21.03;;;;;;;-141.02;100.00;55844.97;5134835;27;20626;-74
2022/03/04 12:00:30;;;;;;;22.43;21.03;;;;;;;-141.02;100.00;55844.97;5134685;27;20206;-74
2022/03/04 12:03:00;;;;;;;23.50;21.57;;;;;;;-141.02;100.00;55844.97;5134343;27;20222;-74
2022/03/04 12:05:33;;;;;;;23.40;21.60;;;;;;;-141.02;100.00;55844.97;5134574;27;20196;-73
2022/03/04 12:08:11;;;;;;;22.43;21.03;;;;;;;-141.02;100.00;55844.97;5134143;27;20224;-73
2022/03/04 12:10:53;;;;;;;23.60;22.00;;;;;;;-141.02;100.00;55844.97;5134476;27;20249;-73
2022/03/04 12:13:25;;;;;;;20.97;19.77;;;;;;;-141.02;100.00;55844.97;5134139;27;20602;-74
2022/03/04 12:15:57;;;;;;;23.73;21.97;;;;;;;-141.02;100.00;55844.97;5134516;27;20195;-73
2022/03/04 12:18:32;;;;;;;23.83;22.23;;;;;;;-141.02;100.00;55844.97;5134336;27;20264;-73
2022/03/04 12:21:10;;;;;;;20.87;19.63;;;;;;;-141.02;100.00;55844.97;5134027;27;20184;-73
2022/03/04 12:23:45;;;;;;;20.60;19.40;;;;;;;-141.02;100.00;55844.97;5134314;27;20189;-73
2022/03/04 12:26:20;;;;;;;21.30;20.00;;;;;;;-141.02;100.00;55844.97;5133859;27;20196;-73